createdAt,value
2022-10-17T00:01:09.485Z,15.36
2022-10-17T00:03:39.017Z,15.35
2022-10-17T00:06:08.630Z,15.35
2022-10-17T00:08:38.131Z,15.29
2022-10-17T00:11:08.533Z,15.30
2022-10-17T00:13:37.288Z,15.29
2022-10-17T00:16:05.393Z,15.28
2022-10-17T00:18:33.648Z,15.26
2022-10-17T00:21:01.501Z,15.24
2022-10-17T00:23:30.504Z,15.23
2022-10-17T00:26:05.528Z,15.19
2022-10-17T00:28:33.696Z,15.15
2022-10-17T00:31:03.581Z,15.11
2022-10-17T00:33:32.533Z,15.10
2022-10-17T00:36:05.087Z,15.08
2022-10-17T00:38:33.345Z,15.06
2022-10-17T00:41:03.024Z,15.11
2022-10-17T00:43:31.398Z,15.10
2022-10-17T00:45:59.221Z,15.13
2022-10-17T00:48:27.541Z,15.11
2022-10-17T00:50:55.961Z,15.15
2022-10-17T00:53:24.172Z,15.15
2022-10-17T00:55:55.522Z,15.12
2022-10-17T00:58:25.004Z,15.12
2022-10-17T01:00:53.106Z,15.16
2022-10-17T01:03:20.980Z,15.15
2022-10-17T01:05:48.896Z,15.08
2022-10-17T01:08:17.818Z,15.07
2022-10-17T01:10:55.650Z,15.03
2022-10-17T01:13:31.225Z,15.02
2022-10-17T01:16:09.887Z,14.93
2022-10-17T01:18:51.049Z,14.88
2022-10-17T01:21:49.022Z,14.89
2022-10-17T01:24:48.159Z,14.87
2022-10-17T01:27:38.089Z,14.88
2022-10-17T01:30:30.840Z,14.79
2022-10-17T01:33:07.914Z,14.76
2022-10-17T01:35:41.282Z,14.75
2022-10-17T01:38:13.919Z,14.73
2022-10-17T01:40:49.312Z,14.70
2022-10-17T01:43:22.407Z,14.67
2022-10-17T01:45:53.364Z,14.73
2022-10-17T01:48:25.893Z,14.66
2022-10-17T01:50:56.965Z,14.64
2022-10-17T01:53:31.110Z,14.66
2022-10-17T01:56:02.911Z,14.67
2022-10-17T01:58:34.410Z,14.66
2022-10-17T02:01:06.356Z,14.59
2022-10-17T02:03:36.769Z,14.58
2022-10-17T02:06:05.255Z,14.45
2022-10-17T02:08:43.241Z,14.40
2022-10-17T02:11:16.314Z,14.42
2022-10-17T02:14:04.147Z,14.45
2022-10-17T02:16:40.380Z,14.44
2022-10-17T02:19:30.143Z,14.45
2022-10-17T02:22:10.710Z,14.42
2022-10-17T02:24:47.617Z,14.41
2022-10-17T02:27:21.824Z,14.37
2022-10-17T02:29:54.913Z,14.39
2022-10-17T02:32:30.075Z,14.36
2022-10-17T02:35:03.440Z,14.35
2022-10-17T02:37:32.995Z,14.35
2022-10-17T02:40:02.515Z,14.33
2022-10-17T02:42:31.941Z,14.30
2022-10-17T02:45:01.554Z,14.31
2022-10-17T02:47:35.788Z,14.32
2022-10-17T02:50:05.786Z,14.31
2022-10-17T02:52:38.980Z,14.30
2022-10-17T02:55:15.052Z,14.29
2022-10-17T02:57:48.121Z,14.27
2022-10-17T03:00:18.318Z,14.27
2022-10-17T03:02:48.065Z,14.21
2022-10-17T03:05:21.271Z,14.19
2022-10-17T03:07:49.709Z,14.19
2022-10-17T03:10:17.845Z,14.13
2022-10-17T03:12:45.984Z,14.12
2022-10-17T03:15:14.965Z,14.13
2022-10-17T03:17:42.972Z,14.13
2022-10-17T03:20:11.560Z,14.10
2022-10-17T03:22:40.891Z,14.06
2022-10-17T03:25:09.272Z,14.01
2022-10-17T03:27:37.360Z,14.01
2022-10-17T03:30:06.238Z,14.00
2022-10-17T03:32:34.628Z,14.01
2022-10-17T03:35:02.788Z,14.02
2022-10-17T03:37:31.310Z,14.01
2022-10-17T03:40:00.649Z,13.97
2022-10-17T03:42:28.942Z,13.96
2022-10-17T03:44:56.799Z,13.94
2022-10-17T03:47:24.702Z,13.90
2022-10-17T03:49:53.812Z,13.90
2022-10-17T03:52:21.950Z,13.89
2022-10-17T03:54:51.061Z,13.89
2022-10-17T03:57:20.899Z,13.85
2022-10-17T03:59:48.723Z,13.89
2022-10-17T04:02:16.729Z,13.88
2022-10-17T04:04:44.576Z,13.89
2022-10-17T04:07:12.581Z,13.85
2022-10-17T04:09:40.434Z,13.82
2022-10-17T04:12:08.432Z,13.78
2022-10-17T04:14:38.096Z,13.79
2022-10-17T04:17:06.614Z,13.80
2022-10-17T04:19:34.911Z,13.71
2022-10-17T04:22:04.110Z,13.73
2022-10-17T04:24:32.545Z,13.69
2022-10-17T04:27:00.583Z,13.68
2022-10-17T04:29:28.849Z,13.62
2022-10-17T04:31:58.125Z,13.58
2022-10-17T04:34:26.144Z,13.57
2022-10-17T04:36:54.150Z,13.57
2022-10-17T04:39:22.290Z,13.56
2022-10-17T04:41:50.154Z,13.60
2022-10-17T04:44:18.095Z,13.58
2022-10-17T04:46:46.208Z,13.57
2022-10-17T04:49:16.055Z,13.57
2022-10-17T04:51:43.973Z,13.58
2022-10-17T04:54:11.846Z,13.53
2022-10-17T04:56:39.697Z,13.53
2022-10-17T04:59:07.531Z,13.49
2022-10-17T05:01:35.446Z,13.56
2022-10-17T05:04:03.294Z,13.52
2022-10-17T05:06:33.662Z,13.49
2022-10-17T05:09:01.609Z,13.44
2022-10-17T05:11:31.075Z,13.44
2022-10-17T05:14:01.047Z,13.45
2022-10-17T05:16:29.954Z,13.41
2022-10-17T05:18:59.455Z,13.47
2022-10-17T05:21:29.197Z,13.45
2022-10-17T05:23:58.894Z,13.43
2022-10-17T05:26:27.861Z,13.46
2022-10-17T05:28:56.227Z,13.37
2022-10-17T05:31:24.564Z,13.38
2022-10-17T05:33:52.365Z,13.40
2022-10-17T05:36:20.351Z,13.39
2022-10-17T05:38:51.333Z,13.44
2022-10-17T05:41:20.961Z,13.45
2022-10-17T05:43:50.275Z,13.47
2022-10-17T05:46:18.614Z,13.48
2022-10-17T05:48:46.813Z,13.38
2022-10-17T05:51:14.960Z,13.30
2022-10-17T05:53:45.956Z,13.33
2022-10-17T05:56:15.442Z,13.36
2022-10-17T05:58:50.451Z,13.34
2022-10-17T06:01:20.390Z,13.40
2022-10-17T06:03:48.325Z,13.39
2022-10-17T06:06:17.260Z,13.40
2022-10-17T06:08:46.252Z,13.41
2022-10-17T06:11:14.614Z,13.44
2022-10-17T06:13:42.771Z,13.43
2022-10-17T06:16:12.201Z,13.45
2022-10-17T06:18:40.202Z,13.43
2022-10-17T06:21:10.734Z,13.42
2022-10-17T06:23:39.474Z,13.50
2022-10-17T06:26:08.696Z,13.53
2022-10-17T06:28:37.298Z,13.51
2022-10-17T06:31:07.305Z,13.46
2022-10-17T06:33:37.413Z,13.47
2022-10-17T06:36:07.056Z,13.56
2022-10-17T06:38:37.029Z,13.50
2022-10-17T06:41:08.362Z,13.48
2022-10-17T06:43:39.019Z,13.52
2022-10-17T06:46:07.688Z,13.48
2022-10-17T06:48:37.099Z,13.53
2022-10-17T06:51:06.641Z,13.54
2022-10-17T06:53:35.854Z,13.53
2022-10-17T06:56:04.745Z,13.49
2022-10-17T06:58:35.157Z,13.57
2022-10-17T07:01:05.423Z,13.62
2022-10-17T07:03:34.189Z,13.67
2022-10-17T07:06:04.661Z,13.74
2022-10-17T07:08:32.647Z,13.81
2022-10-17T07:11:00.674Z,13.92
2022-10-17T07:13:28.544Z,13.99
2022-10-17T07:16:01.705Z,14.13
2022-10-17T07:18:29.580Z,14.23
2022-10-17T07:21:00.063Z,14.34
2022-10-17T07:23:29.561Z,14.50
2022-10-17T07:26:02.594Z,14.69
2022-10-17T07:28:31.036Z,14.92
2022-10-17T07:31:04.791Z,15.19
2022-10-17T07:33:33.325Z,15.42
2022-10-17T07:36:01.476Z,15.63
2022-10-17T07:38:31.280Z,15.84
2022-10-17T07:41:02.692Z,16.06
2022-10-17T07:43:31.682Z,16.21
2022-10-17T07:46:00.080Z,16.35
2022-10-17T07:48:28.882Z,16.52
2022-10-17T07:50:57.140Z,16.67
2022-10-17T07:53:25.132Z,16.84
2022-10-17T07:55:54.723Z,16.97
2022-10-17T07:58:22.557Z,17.09
2022-10-17T08:00:51.240Z,17.25
2022-10-17T08:03:19.606Z,17.42
2022-10-17T08:05:47.832Z,17.60
2022-10-17T08:08:16.148Z,17.73
2022-10-17T08:10:44.584Z,17.92
2022-10-17T08:13:14.059Z,18.04
2022-10-17T08:15:42.144Z,18.15
2022-10-17T08:18:10.463Z,18.27
2022-10-17T08:20:38.648Z,18.37
2022-10-17T08:23:06.723Z,18.53
2022-10-17T08:25:34.599Z,18.67
2022-10-17T08:28:02.906Z,18.80
2022-10-17T08:30:32.534Z,18.90
2022-10-17T08:33:00.572Z,19.02
2022-10-17T08:35:28.978Z,19.22
2022-10-17T08:37:57.239Z,19.37
2022-10-17T08:40:28.015Z,19.46
2022-10-17T08:43:22.754Z,19.55
2022-10-17T08:45:56.064Z,19.68
2022-10-17T08:48:27.069Z,19.73
2022-10-17T08:50:59.260Z,19.87
2022-10-17T08:53:32.714Z,19.96
2022-10-17T08:56:07.196Z,20.05
2022-10-17T08:58:39.931Z,20.09
2022-10-17T09:01:22.594Z,20.20
2022-10-17T09:04:04.848Z,20.23
2022-10-17T09:06:36.454Z,20.32
2022-10-17T09:09:16.983Z,20.45
2022-10-17T09:11:57.608Z,20.59
2022-10-17T09:14:41.273Z,20.71
2022-10-17T09:17:19.105Z,20.81
2022-10-17T09:19:55.972Z,20.90
2022-10-17T09:22:29.678Z,21.03
2022-10-17T09:25:03.342Z,21.20
2022-10-17T09:27:36.770Z,21.27
2022-10-17T09:30:43.586Z,21.33
2022-10-17T09:33:34.364Z,21.35
2022-10-17T09:36:10.607Z,21.47
2022-10-17T09:38:42.385Z,21.51
2022-10-17T09:41:43.125Z,21.52
2022-10-17T09:44:22.057Z,21.58
2022-10-17T09:47:11.234Z,21.56
2022-10-17T09:49:42.861Z,21.65
2022-10-17T09:52:16.034Z,21.71
2022-10-17T09:54:47.950Z,21.69
2022-10-17T09:57:18.099Z,21.62
2022-10-17T09:59:49.524Z,21.68
2022-10-17T10:02:21.498Z,21.78
2022-10-17T10:05:07.424Z,21.87
2022-10-17T10:07:49.618Z,22.01
2022-10-17T10:10:29.913Z,22.10
2022-10-17T10:13:07.217Z,22.13
2022-10-17T10:15:41.045Z,22.21
2022-10-17T10:21:13.758Z,22.33
2022-10-17T10:23:43.565Z,22.41
2022-10-17T10:26:22.907Z,22.44
2022-10-17T10:29:01.292Z,22.50
2022-10-17T10:31:34.857Z,22.53
2022-10-17T10:34:13.192Z,22.63
2022-10-17T10:37:05.633Z,22.77
2022-10-17T10:39:43.398Z,22.82
2022-10-17T10:42:23.616Z,22.86
2022-10-17T10:44:53.084Z,22.87
2022-10-17T10:47:26.527Z,22.90
2022-10-17T10:50:09.603Z,23.05
2022-10-17T10:52:46.598Z,23.06
2022-10-17T10:55:26.224Z,23.16
2022-10-17T10:58:01.430Z,23.25
2022-10-17T11:00:33.116Z,23.31
2022-10-17T11:03:12.739Z,23.38
2022-10-17T11:05:46.470Z,23.42
2022-10-17T11:08:25.195Z,23.52
2022-10-17T11:11:13.782Z,23.57
2022-10-17T11:13:48.571Z,23.63
2022-10-17T11:16:32.631Z,23.72
2022-10-17T11:19:12.296Z,23.78
2022-10-17T11:21:46.688Z,23.79
2022-10-17T11:24:22.629Z,23.79
2022-10-17T11:26:58.131Z,23.87
2022-10-17T11:29:30.995Z,23.93
2022-10-17T11:32:04.339Z,24.06
2022-10-17T11:34:36.572Z,24.14
2022-10-17T11:37:17.586Z,24.20
2022-10-17T11:39:51.472Z,24.27
2022-10-17T11:42:24.856Z,24.33
2022-10-17T11:45:00.917Z,24.47
2022-10-17T11:47:39.606Z,24.55
2022-10-17T11:53:14.221Z,24.72
2022-10-17T11:55:44.989Z,24.78
2022-10-17T11:58:37.670Z,24.92
2022-10-17T12:01:17.261Z,25.07
2022-10-17T12:03:59.228Z,25.14
2022-10-17T12:06:40.855Z,25.21
2022-10-17T12:09:19.045Z,25.33
2022-10-17T12:11:54.199Z,25.32
2022-10-17T12:14:52.208Z,25.38
2022-10-17T12:17:34.993Z,25.44
2022-10-17T12:20:45.518Z,25.50
2022-10-17T12:23:36.569Z,25.49
2022-10-17T12:26:07.874Z,25.50
2022-10-17T12:28:43.623Z,25.57
2022-10-17T12:31:29.764Z,25.61
2022-10-17T12:34:03.124Z,25.69
2022-10-17T12:36:40.803Z,25.65
2022-10-17T12:39:56.584Z,25.73
2022-10-17T12:42:35.341Z,25.80
2022-10-17T12:45:45.316Z,25.86
2022-10-17T12:48:13.700Z,25.89
2022-10-17T12:54:00.447Z,25.98
2022-10-17T12:56:37.732Z,26.05
2022-10-17T12:59:11.138Z,26.00
2022-10-17T13:01:45.223Z,25.96
2022-10-17T13:04:14.675Z,25.87
2022-10-17T13:06:48.965Z,25.82
2022-10-17T13:09:26.691Z,25.73
2022-10-17T13:11:57.492Z,25.67
2022-10-17T13:14:40.279Z,25.65
2022-10-17T13:17:25.987Z,25.52
2022-10-17T13:19:54.332Z,25.50
2022-10-17T13:22:24.568Z,25.44
2022-10-17T13:24:54.912Z,25.44
2022-10-17T13:27:26.368Z,25.41
2022-10-17T13:29:56.386Z,25.37
2022-10-17T13:32:27.831Z,25.35
2022-10-17T13:35:17.785Z,25.26
2022-10-17T13:37:53.718Z,25.18
2022-10-17T13:40:49.170Z,25.13
2022-10-17T13:43:18.552Z,25.01
2022-10-17T13:45:50.681Z,25.02
2022-10-17T13:48:24.000Z,24.95
2022-10-17T13:50:56.347Z,24.90
2022-10-17T13:53:30.791Z,24.90
2022-10-17T13:56:27.718Z,24.85
2022-10-17T13:58:51.853Z,24.80
2022-10-17T14:01:21.766Z,24.77
2022-10-17T14:04:07.140Z,24.70
2022-10-17T14:06:45.151Z,24.65
2022-10-17T14:09:22.420Z,24.58
2022-10-17T14:12:03.701Z,24.45
2022-10-17T14:14:51.743Z,24.44
2022-10-17T14:17:25.389Z,24.53
2022-10-17T14:20:14.165Z,24.49
2022-10-17T14:22:50.627Z,24.45
2022-10-17T14:25:30.903Z,24.44
2022-10-17T14:28:08.330Z,24.42
2022-10-17T14:30:55.578Z,24.43
2022-10-17T14:33:28.900Z,24.40
2022-10-17T14:36:01.591Z,24.42
2022-10-17T14:38:30.926Z,24.34
2022-10-17T14:41:30.593Z,24.27
2022-10-17T14:43:55.709Z,24.30
2022-10-17T14:46:24.006Z,24.27
2022-10-17T14:48:57.717Z,24.20
2022-10-17T14:51:32.417Z,24.17
2022-10-17T14:54:25.125Z,24.11
2022-10-17T14:56:56.029Z,24.08
2022-10-17T14:59:52.047Z,23.99
2022-10-17T15:02:14.670Z,23.90
2022-10-17T15:04:42.815Z,23.84
2022-10-17T15:07:15.064Z,23.83
2022-10-17T15:09:43.836Z,23.74
2022-10-17T15:12:17.508Z,23.66
2022-10-17T15:14:48.035Z,23.59
2022-10-17T15:17:18.614Z,23.59
2022-10-17T15:19:46.674Z,23.53
2022-10-17T15:22:16.834Z,23.51
2022-10-17T15:24:47.672Z,23.48
2022-10-17T15:27:18.063Z,23.46
2022-10-17T15:29:47.196Z,23.41
2022-10-17T15:32:15.943Z,23.38
2022-10-17T15:34:44.268Z,23.33
2022-10-17T15:37:22.159Z,23.40
2022-10-17T15:39:53.647Z,23.33
2022-10-17T15:42:24.331Z,23.24
2022-10-17T15:44:54.122Z,23.20
2022-10-17T15:47:28.712Z,23.13
2022-10-17T15:49:57.691Z,23.07
2022-10-17T15:52:27.950Z,23.04
2022-10-17T15:54:58.378Z,22.98
2022-10-17T15:57:32.738Z,22.86
2022-10-17T16:00:01.661Z,22.78
2022-10-17T16:02:29.465Z,22.73
2022-10-17T16:04:57.267Z,22.66
2022-10-17T16:07:26.880Z,22.55
2022-10-17T16:09:55.033Z,22.46
2022-10-17T16:12:28.981Z,22.34
2022-10-17T16:14:57.331Z,22.21
2022-10-17T16:17:26.798Z,22.00
2022-10-17T16:19:55.157Z,21.91
2022-10-17T16:22:32.150Z,21.72
2022-10-17T16:25:07.791Z,21.55
2022-10-17T16:27:35.796Z,21.39
2022-10-17T16:30:04.581Z,21.24
2022-10-17T16:32:32.741Z,21.14
2022-10-17T16:35:01.663Z,21.02
2022-10-17T16:37:30.885Z,20.89
2022-10-17T16:39:59.041Z,20.81
2022-10-17T16:42:26.982Z,20.70
2022-10-17T16:44:54.991Z,20.61
2022-10-17T16:47:22.864Z,20.50
2022-10-17T16:49:50.648Z,20.39
2022-10-17T16:52:18.498Z,20.29
2022-10-17T16:54:47.746Z,20.17
2022-10-17T16:57:15.711Z,20.10
2022-10-17T16:59:43.596Z,20.01
2022-10-17T17:02:12.137Z,19.97
2022-10-17T17:04:40.205Z,19.86
2022-10-17T17:07:08.087Z,19.86
2022-10-17T17:09:36.074Z,19.81
2022-10-17T17:12:05.567Z,19.76
2022-10-17T17:14:33.384Z,19.73
2022-10-17T17:17:01.175Z,19.66
2022-10-17T17:19:29.153Z,19.49
2022-10-17T17:21:56.999Z,19.46
2022-10-17T17:24:25.572Z,19.43
2022-10-17T17:26:55.103Z,19.38
2022-10-17T17:29:25.757Z,19.35
2022-10-17T17:31:53.618Z,19.24
2022-10-17T17:34:21.532Z,19.18
2022-10-17T17:36:49.313Z,19.15
2022-10-17T17:39:17.433Z,19.15
2022-10-17T17:41:55.989Z,19.02
2022-10-17T17:44:25.235Z,18.98
2022-10-17T17:46:54.440Z,18.95
2022-10-17T17:49:23.085Z,18.95
2022-10-17T17:51:50.966Z,18.90
2022-10-17T17:54:18.809Z,18.84
2022-10-17T17:56:46.873Z,18.80
2022-10-17T17:59:14.682Z,18.75
2022-10-17T18:01:44.924Z,18.69
2022-10-17T18:04:13.179Z,18.64
2022-10-17T18:06:41.224Z,18.62
2022-10-17T18:09:10.136Z,18.60
2022-10-17T18:11:38.767Z,18.54
2022-10-17T18:14:08.591Z,18.51
2022-10-17T18:16:37.698Z,18.44
2022-10-17T18:19:08.967Z,18.41
2022-10-17T18:21:37.610Z,18.35
2022-10-17T18:24:06.120Z,18.34
2022-10-17T18:26:34.596Z,18.29
2022-10-17T18:29:02.503Z,18.27
2022-10-17T18:31:35.867Z,18.27
2022-10-17T18:34:05.114Z,18.21
2022-10-17T18:36:35.783Z,18.22
2022-10-17T18:39:04.547Z,18.18
2022-10-17T18:41:33.719Z,18.13
2022-10-17T18:44:02.972Z,18.10
2022-10-17T18:46:35.834Z,18.11
2022-10-17T18:49:05.021Z,18.10
2022-10-17T18:51:37.950Z,18.04
2022-10-17T18:54:07.849Z,18.01
2022-10-17T18:56:36.162Z,17.97
2022-10-17T18:59:04.407Z,17.93
2022-10-17T19:01:33.636Z,17.91
2022-10-17T19:04:01.758Z,17.89
2022-10-17T19:06:32.051Z,17.83
2022-10-17T19:09:03.178Z,17.79
2022-10-17T19:11:33.259Z,17.75
2022-10-17T19:14:03.535Z,17.72
2022-10-17T19:16:33.232Z,17.69
2022-10-17T19:19:10.120Z,17.65
2022-10-17T19:21:42.671Z,17.65
2022-10-17T19:24:15.125Z,17.64
2022-10-17T19:26:44.759Z,17.60
2022-10-17T19:29:15.274Z,17.60
2022-10-17T19:31:43.237Z,17.54
2022-10-17T19:34:11.639Z,17.53
2022-10-17T19:36:40.327Z,17.50
2022-10-17T19:39:12.033Z,17.42
2022-10-17T19:41:42.845Z,17.38
2022-10-17T19:44:11.174Z,17.31
2022-10-17T19:46:40.211Z,17.30
2022-10-17T19:49:12.644Z,17.25
2022-10-17T19:51:42.309Z,17.27
2022-10-17T19:54:11.078Z,17.27
2022-10-17T19:56:40.348Z,17.28
2022-10-17T19:59:09.668Z,17.26
2022-10-17T20:01:41.228Z,17.14
2022-10-17T20:04:10.801Z,17.07
2022-10-17T20:06:39.412Z,17.02
2022-10-17T20:09:11.035Z,17.01
2022-10-17T20:11:42.093Z,17.04
2022-10-17T20:14:12.329Z,17.04
2022-10-17T20:16:40.212Z,17.04
2022-10-17T20:19:11.113Z,17.04
2022-10-17T20:21:40.628Z,17.00
2022-10-17T20:24:12.829Z,16.95
2022-10-17T20:26:41.170Z,16.94
2022-10-17T20:29:13.804Z,16.93
2022-10-17T20:31:43.269Z,16.95
2022-10-17T20:34:14.016Z,16.96
2022-10-17T20:36:42.619Z,16.98
2022-10-17T20:39:12.560Z,17.02
2022-10-17T20:41:40.925Z,17.04
2022-10-17T20:44:09.065Z,16.99
2022-10-17T20:46:44.851Z,16.93
2022-10-17T20:49:18.700Z,16.91
2022-10-17T20:51:47.407Z,16.89
2022-10-17T20:54:15.470Z,16.91
2022-10-17T20:56:43.285Z,16.90
2022-10-17T20:59:17.609Z,16.88
2022-10-17T21:01:47.217Z,16.89
2022-10-17T21:04:44.328Z,16.86
2022-10-17T21:07:04.177Z,16.84
2022-10-17T21:09:32.373Z,16.86
2022-10-17T21:14:29.462Z,16.88
2022-10-17T21:17:03.733Z,16.87
2022-10-17T21:19:32.720Z,16.86
2022-10-17T21:22:00.602Z,16.82
2022-10-17T21:24:39.610Z,16.78
2022-10-17T21:27:14.434Z,16.74
2022-10-17T21:29:42.340Z,16.71
2022-10-17T21:32:25.133Z,16.68
2022-10-17T21:35:00.517Z,16.67
2022-10-17T21:37:28.355Z,16.64
2022-10-17T21:39:56.178Z,16.63
2022-10-17T21:42:24.108Z,16.63
2022-10-17T21:44:51.989Z,16.62
2022-10-17T21:47:23.256Z,16.61
2022-10-17T21:49:53.444Z,16.59
2022-10-17T21:52:21.329Z,16.55
2022-10-17T21:54:49.369Z,16.51
2022-10-17T21:59:44.929Z,16.46
2022-10-17T22:02:14.713Z,16.45
2022-10-17T22:04:43.917Z,16.49
2022-10-17T22:07:16.337Z,16.51
2022-10-17T22:09:44.161Z,16.54
2022-10-17T22:12:11.949Z,16.53
2022-10-17T22:14:43.017Z,16.48
2022-10-17T22:17:10.860Z,16.41
2022-10-17T22:19:38.668Z,16.42
2022-10-17T22:22:07.909Z,16.41
2022-10-17T22:24:35.873Z,16.40
2022-10-17T22:27:03.686Z,16.41
2022-10-17T22:29:31.701Z,16.43
2022-10-17T22:31:59.531Z,16.42
2022-10-17T22:34:27.864Z,16.40
2022-10-17T22:36:56.023Z,16.41
2022-10-17T22:39:25.724Z,16.42
2022-10-17T22:41:53.611Z,16.41
2022-10-17T22:44:21.744Z,16.42
2022-10-17T22:46:49.858Z,16.43
2022-10-17T22:49:18.029Z,16.44
2022-10-17T22:51:46.005Z,16.47
2022-10-17T22:54:13.805Z,16.48
2022-10-17T22:56:43.028Z,16.44
2022-10-17T22:59:11.192Z,16.44
2022-10-17T23:01:39.392Z,16.40
2022-10-17T23:04:07.185Z,16.39
2022-10-17T23:06:35.239Z,16.38
2022-10-17T23:09:03.203Z,16.36
2022-10-17T23:11:31.370Z,16.34
2022-10-17T23:14:00.577Z,16.33
2022-10-17T23:16:28.397Z,16.31
2022-10-17T23:18:56.460Z,16.30
2022-10-17T23:21:24.574Z,16.28
2022-10-17T23:23:52.670Z,16.25
2022-10-17T23:26:20.645Z,16.23
2022-10-17T23:28:48.794Z,16.21
2022-10-17T23:31:20.501Z,16.17
2022-10-17T23:33:50.392Z,16.13
2022-10-17T23:36:20.891Z,16.12
2022-10-17T23:38:52.629Z,16.09
2022-10-17T23:41:23.310Z,16.09
2022-10-17T23:43:51.830Z,16.08
2022-10-17T23:46:21.952Z,16.04
2022-10-17T23:48:50.289Z,16.03
2022-10-17T23:51:18.928Z,16.02
2022-10-17T23:53:48.021Z,16.00
2022-10-17T23:56:16.530Z,15.99
2022-10-17T23:58:45.002Z,16.00
